createdAt,value
2022-12-01T00:04:46.654Z,6.5
2022-12-01T00:08:49.737Z,6.5
2022-12-01T00:10:47.350Z,6.6
2022-12-01T00:14:42.521Z,6.4
2022-12-01T00:16:40.144Z,6.5
2022-12-01T00:18:37.690Z,6.5
2022-12-01T00:20:35.304Z,6.4
2022-12-01T00:22:40.786Z,6.5
2022-12-01T00:24:38.381Z,6.5
2022-12-01T00:26:35.960Z,6.5
2022-12-01T00:28:33.533Z,6.4
2022-12-01T00:32:28.742Z,6.4
2022-12-01T00:34:26.317Z,6.4
2022-12-01T00:38:29.373Z,6.5
2022-12-01T00:40:26.955Z,6.4
2022-12-01T00:44:48.097Z,6.4
2022-12-01T00:46:45.661Z,6.3
2022-12-01T00:50:48.755Z,6.4
2022-12-01T00:52:46.337Z,6.4
2022-12-01T00:56:41.478Z,6.4
2022-12-01T00:58:39.088Z,6.4
2022-12-01T01:00:36.645Z,6.5
2022-12-01T01:02:42.191Z,6.5
2022-12-01T01:04:39.714Z,6.5
2022-12-01T01:06:37.275Z,6.6
2022-12-01T01:08:34.892Z,6.6
2022-12-01T01:12:30.111Z,6.4
2022-12-01T01:14:27.695Z,6.5
2022-12-01T01:16:33.197Z,6.5
2022-12-01T01:18:30.745Z,6.4
2022-12-01T01:20:28.306Z,6.4
2022-12-01T01:22:25.876Z,6.5
2022-12-01T01:24:23.458Z,6.5
2022-12-01T01:26:21.035Z,6.6
2022-12-01T01:28:18.624Z,6.6
2022-12-01T01:32:21.684Z,6.6
2022-12-01T01:34:19.286Z,6.5
2022-12-01T01:35:22.006Z,6.5
2022-12-01T01:37:19.610Z,6.6
2022-12-01T01:39:17.182Z,6.5
2022-12-01T01:41:14.774Z,6.4
2022-12-01T01:43:20.248Z,6.4
2022-12-01T01:45:17.842Z,6.5
2022-12-01T01:47:15.401Z,6.5
2022-12-01T01:49:12.981Z,6.5
2022-12-01T01:51:10.566Z,6.5
2022-12-01T01:53:08.175Z,6.4
2022-12-01T01:55:05.782Z,6.5
2022-12-01T01:57:11.231Z,6.5
2022-12-01T01:59:08.805Z,6.4
2022-12-01T02:01:06.487Z,6.5
2022-12-01T02:03:03.981Z,6.5
2022-12-01T02:05:01.577Z,6.5
2022-12-01T02:08:56.733Z,6.5
2022-12-01T02:11:02.259Z,6.4
2022-12-01T02:12:59.847Z,6.5
2022-12-01T02:14:57.407Z,6.5
2022-12-01T02:16:55.122Z,6.5
2022-12-01T02:18:52.603Z,6.5
2022-12-01T02:20:50.165Z,6.4
2022-12-01T02:22:53.435Z,6.4
2022-12-01T02:24:53.266Z,6.5
2022-12-01T02:26:50.816Z,6.4
2022-12-01T02:28:48.421Z,6.3
2022-12-01T02:29:51.361Z,6.4
2022-12-01T02:31:48.703Z,6.4
2022-12-01T02:41:45.502Z,6.4
2022-12-01T02:43:43.092Z,6.3
2022-12-01T02:45:40.773Z,6.3
2022-12-01T02:47:38.289Z,6.3
2022-12-01T02:51:41.329Z,6.4
2022-12-01T03:01:29.315Z,6.3
2022-12-01T03:03:26.860Z,6.2
2022-12-01T03:05:32.338Z,6.2
2022-12-01T03:07:29.962Z,6.3
2022-12-01T03:11:25.087Z,6.2
2022-12-01T03:17:17.851Z,6.3
2022-12-01T03:21:20.922Z,6.3
2022-12-01T03:23:18.475Z,6.3
2022-12-01T03:24:21.247Z,6.3
2022-12-01T03:26:20.351Z,6.3
2022-12-01T03:30:15.467Z,6.2
2022-12-01T03:32:20.943Z,6.3
2022-12-01T03:34:18.508Z,6.2
2022-12-01T03:38:13.675Z,6.3
2022-12-01T03:40:11.258Z,6.2
2022-12-01T03:42:08.809Z,6.3
2022-12-01T03:46:11.936Z,6.2
2022-12-01T03:48:09.456Z,6.3
2022-12-01T03:50:07.058Z,6.3
2022-12-01T03:52:04.631Z,6.4
2022-12-01T03:54:02.203Z,6.2
2022-12-01T03:55:59.775Z,6.3
2022-12-01T03:57:57.358Z,6.2
2022-12-01T04:00:02.825Z,6.2
2022-12-01T04:02:00.449Z,6.3
2022-12-01T04:03:57.982Z,6.2
2022-12-01T04:05:55.571Z,6.2
2022-12-01T04:07:53.355Z,6.3
2022-12-01T04:09:50.969Z,6.2
2022-12-01T04:11:48.306Z,6.3
2022-12-01T04:13:53.774Z,6.4
2022-12-01T04:15:51.443Z,6.3
2022-12-01T04:17:48.935Z,6.3
2022-12-01T04:20:11.974Z,6.4
2022-12-01T04:22:09.552Z,6.4
2022-12-01T04:24:07.119Z,6.4
2022-12-01T04:26:15.703Z,6.4
2022-12-01T04:28:10.202Z,6.4
2022-12-01T04:30:07.801Z,6.3
2022-12-01T04:32:05.380Z,6.4
2022-12-01T04:34:02.979Z,6.4
2022-12-01T04:36:00.522Z,6.5
2022-12-01T04:40:03.590Z,6.3
2022-12-01T04:49:51.756Z,6.3
2022-12-01T04:51:49.071Z,6.3
2022-12-01T04:53:54.531Z,6.3
2022-12-01T04:55:52.269Z,6.3
2022-12-01T04:57:49.707Z,6.3
2022-12-01T04:59:47.379Z,6.4
2022-12-01T05:01:44.931Z,6.3
2022-12-01T05:03:42.424Z,6.3
2022-12-01T05:05:40.001Z,6.4
2022-12-01T05:07:45.541Z,6.3
2022-12-01T05:09:43.057Z,6.4
2022-12-01T05:11:40.616Z,6.3
2022-12-01T05:12:43.353Z,6.2
2022-12-01T05:20:41.549Z,6.2
2022-12-01T05:23:04.464Z,6.3
2022-12-01T05:28:31.931Z,6.2
2022-12-01T05:30:29.512Z,6.1
2022-12-01T05:32:27.104Z,6.2
2022-12-01T05:34:32.587Z,6.3
2022-12-01T05:36:30.172Z,6.2
2022-12-01T05:38:27.731Z,6.3
2022-12-01T05:42:22.885Z,6.2
2022-12-01T05:44:20.464Z,6.2
2022-12-01T05:46:18.200Z,6.3
2022-12-01T05:48:23.524Z,6.2
2022-12-01T05:50:21.077Z,6.2
2022-12-01T05:52:18.656Z,6.2
2022-12-01T05:54:16.233Z,6.1
2022-12-01T05:56:13.810Z,6.2
2022-12-01T06:00:08.933Z,6.2
2022-12-01T06:02:14.473Z,6.3
2022-12-01T06:04:12.125Z,6.3
2022-12-01T06:06:09.643Z,6.3
2022-12-01T06:07:12.366Z,6.3
2022-12-01T06:09:09.941Z,6.3
2022-12-01T06:11:07.478Z,6.2
2022-12-01T06:13:05.059Z,6.2
2022-12-01T06:15:10.544Z,6.3
2022-12-01T06:17:08.101Z,6.3
2022-12-01T06:19:05.672Z,6.3
2022-12-01T06:21:03.241Z,6.3
2022-12-01T06:23:00.802Z,6.4
2022-12-01T06:24:58.420Z,6.4
2022-12-01T06:29:01.451Z,6.5
2022-12-01T06:34:54.205Z,6.5
2022-12-01T06:36:51.762Z,6.5
2022-12-01T06:38:49.350Z,6.5
2022-12-01T06:42:52.378Z,6.5
2022-12-01T06:44:49.955Z,6.6
2022-12-01T06:50:42.689Z,6.5
2022-12-01T06:52:40.347Z,6.3
2022-12-01T06:54:37.894Z,6.5
2022-12-01T06:56:43.350Z,6.5
2022-12-01T06:58:40.939Z,6.5
2022-12-01T07:00:38.532Z,6.5
2022-12-01T07:01:41.341Z,6.4
2022-12-01T07:03:38.853Z,6.5
2022-12-01T07:07:34.065Z,6.4
2022-12-01T07:09:39.481Z,6.5
2022-12-01T07:13:34.613Z,6.5
2022-12-01T07:17:29.783Z,6.5
2022-12-01T07:19:27.395Z,6.3
2022-12-01T07:21:24.932Z,6.4
2022-12-01T07:23:30.430Z,6.3
2022-12-01T07:25:28.017Z,6.5
2022-12-01T07:27:25.615Z,6.3
2022-12-01T07:29:23.167Z,6.3
2022-12-01T07:31:20.776Z,6.3
2022-12-01T07:33:18.302Z,6.4
2022-12-01T07:35:15.903Z,6.5
2022-12-01T07:37:21.388Z,6.4
2022-12-01T07:39:18.942Z,6.5
2022-12-01T07:41:16.498Z,6.4
2022-12-01T07:43:14.123Z,6.4
2022-12-01T07:45:11.696Z,6.3
2022-12-01T07:49:06.883Z,6.4
2022-12-01T07:51:12.348Z,6.4
2022-12-01T07:57:30.262Z,6.4
2022-12-01T07:59:27.875Z,6.4
2022-12-01T08:01:25.486Z,6.4
2022-12-01T08:03:30.914Z,6.4
2022-12-01T08:07:29.827Z,6.4
2022-12-01T08:09:23.684Z,6.5
2022-12-01T08:15:16.385Z,6.4
2022-12-01T08:17:21.882Z,6.4
2022-12-01T08:19:19.460Z,6.4
2022-12-01T08:25:12.186Z,6.4
2022-12-01T08:27:09.752Z,6.4
2022-12-01T08:29:07.358Z,6.4
2022-12-01T08:31:12.879Z,6.5
2022-12-01T08:33:10.420Z,6.5
2022-12-01T08:35:08.000Z,6.4
2022-12-01T08:37:05.572Z,6.4
2022-12-01T08:39:03.155Z,6.4
2022-12-01T08:41:00.712Z,6.4
2022-12-01T08:42:58.311Z,6.4
2022-12-01T08:45:03.833Z,6.4
2022-12-01T08:47:01.319Z,6.5
2022-12-01T08:48:58.934Z,6.6
2022-12-01T08:50:01.675Z,6.4
2022-12-01T08:51:59.242Z,6.5
2022-12-01T08:53:56.825Z,6.5
2022-12-01T08:55:54.431Z,6.5
2022-12-01T08:57:59.869Z,6.5
2022-12-01T08:59:57.492Z,6.6
2022-12-01T09:03:52.671Z,6.6
2022-12-01T09:05:50.476Z,6.6
2022-12-01T09:09:47.195Z,6.6
2022-12-01T09:11:52.413Z,6.6
2022-12-01T09:15:47.582Z,6.6
2022-12-01T09:17:45.184Z,6.7
2022-12-01T09:19:42.781Z,6.7
2022-12-01T09:21:40.345Z,6.7
2022-12-01T09:23:37.962Z,6.8
2022-12-01T09:27:41.018Z,6.7
2022-12-01T09:29:38.625Z,6.7
2022-12-01T09:31:36.214Z,6.8
2022-12-01T09:33:33.774Z,6.8
2022-12-01T09:35:31.345Z,6.7
2022-12-01T09:37:28.944Z,6.7
2022-12-01T09:39:34.421Z,6.7
2022-12-01T09:41:32.044Z,6.7
2022-12-01T09:44:32.345Z,6.7
2022-12-01T09:46:29.999Z,6.7
2022-12-01T09:48:27.542Z,6.7
2022-12-01T09:50:25.245Z,6.7
2022-12-01T09:52:30.625Z,6.6
2022-12-01T09:54:28.190Z,6.7
2022-12-01T09:56:25.782Z,6.7
2022-12-01T09:58:23.392Z,6.7
2022-12-01T10:00:20.958Z,6.6
2022-12-01T10:02:18.669Z,6.6
2022-12-01T10:04:16.150Z,6.6
2022-12-01T10:06:28.970Z,6.6
2022-12-01T10:08:23.817Z,6.5
2022-12-01T10:12:14.394Z,6.6
2022-12-01T10:14:15.136Z,6.5
2022-12-01T10:16:09.703Z,6.6
2022-12-01T10:18:07.156Z,6.6
2022-12-01T10:20:12.643Z,6.6
2022-12-01T10:22:10.250Z,6.7
2022-12-01T10:24:07.807Z,6.6
2022-12-01T10:26:05.392Z,6.7
2022-12-01T10:28:02.972Z,6.6
2022-12-01T10:30:00.566Z,6.5
2022-12-01T10:31:58.326Z,6.7
2022-12-01T10:34:03.613Z,6.5
2022-12-01T10:36:01.195Z,6.5
2022-12-01T10:44:54.304Z,6.8
2022-12-01T10:48:57.389Z,6.9
2022-12-01T10:50:54.947Z,6.9
2022-12-01T10:52:52.550Z,6.9
2022-12-01T10:54:50.154Z,6.9
2022-12-01T10:56:47.718Z,7
2022-12-01T10:58:45.326Z,7.1
2022-12-01T11:00:59.758Z,7
2022-12-01T11:02:48.649Z,7.1
2022-12-01T11:04:45.991Z,7
2022-12-01T11:06:43.609Z,7
2022-12-01T11:08:41.159Z,7
2022-12-01T11:10:38.754Z,6.9
2022-12-01T11:12:36.367Z,7
2022-12-01T11:14:41.852Z,7
2022-12-01T11:16:39.515Z,7
2022-12-01T11:18:37.117Z,7
2022-12-01T11:20:34.706Z,7
2022-12-01T11:22:32.192Z,7.2
2022-12-01T11:24:29.785Z,7.1
2022-12-01T11:26:27.391Z,7.2
2022-12-01T11:28:32.918Z,7.3
2022-12-01T11:30:30.448Z,7.3
2022-12-01T11:32:28.015Z,7.2
2022-12-01T11:34:51.650Z,7.2
2022-12-01T11:36:54.130Z,7.3
2022-12-01T11:38:51.712Z,7.3
2022-12-01T11:40:57.196Z,7.4
2022-12-01T11:42:54.780Z,7.3
2022-12-01T11:44:52.518Z,7.4
2022-12-01T11:46:55.796Z,7.4
2022-12-01T11:48:47.556Z,7.5
2022-12-01T11:50:45.165Z,7.5
2022-12-01T11:52:42.761Z,7.4
2022-12-01T11:54:48.226Z,7.7
2022-12-01T11:56:45.865Z,8.1
2022-12-01T11:58:43.471Z,8.4
2022-12-01T12:00:41.050Z,9.2
2022-12-01T12:06:40.491Z,9.6
2022-12-01T12:12:35.081Z,8.5
2022-12-01T12:14:32.687Z,9
2022-12-01T12:16:32.167Z,9.1
2022-12-01T12:18:27.878Z,9.9
2022-12-01T12:20:25.479Z,11.5
2022-12-01T12:22:30.977Z,9.9
2022-12-01T12:24:28.578Z,9.6
2022-12-01T12:26:26.201Z,9
2022-12-01T12:27:28.982Z,8.6
2022-12-01T12:29:26.593Z,8.6
2022-12-01T12:31:24.247Z,8.6
2022-12-01T12:35:27.289Z,8.6
2022-12-01T12:37:24.894Z,8.6
2022-12-01T12:39:22.515Z,8.6
2022-12-01T12:41:20.146Z,8.4
2022-12-01T12:43:17.727Z,8.3
2022-12-01T12:45:15.319Z,8.1
2022-12-01T12:47:12.937Z,8
2022-12-01T12:51:16.079Z,7.8
2022-12-01T12:53:13.690Z,7.8
2022-12-01T12:55:11.282Z,7.9
2022-12-01T12:59:06.487Z,7.9
2022-12-01T13:01:04.121Z,7.9
2022-12-01T13:03:09.592Z,7.7
2022-12-01T13:05:07.170Z,7.9
2022-12-01T13:07:04.754Z,7.8
2022-12-01T13:09:02.374Z,7.8
2022-12-01T13:11:00.012Z,8.1
2022-12-01T13:12:57.751Z,8.1
2022-12-01T13:15:00.711Z,8.2
2022-12-01T13:17:00.700Z,8.3
2022-12-01T13:18:58.321Z,8.3
2022-12-01T13:20:56.038Z,8.1
2022-12-01T13:23:56.258Z,7.9
2022-12-01T13:25:53.838Z,8
2022-12-01T13:29:56.948Z,7.9
2022-12-01T13:36:05.883Z,7.9
2022-12-01T13:37:47.376Z,7.9
2022-12-01T13:39:44.957Z,7.9
2022-12-01T13:41:42.575Z,7.9
2022-12-01T13:43:48.082Z,8
2022-12-01T13:45:45.682Z,7.9
2022-12-01T13:47:43.290Z,7.9
2022-12-01T13:49:40.927Z,7.9
2022-12-01T13:51:38.534Z,7.8
2022-12-01T13:53:36.137Z,7.7
2022-12-01T13:55:33.707Z,7.6
2022-12-01T13:57:39.233Z,7.7
2022-12-01T13:59:36.818Z,7.6
2022-12-01T14:01:34.609Z,7.7
2022-12-01T14:03:32.195Z,7.8
2022-12-01T14:05:29.633Z,7.7
2022-12-01T14:07:27.318Z,7.7
2022-12-01T14:09:24.839Z,7.6
2022-12-01T14:11:30.314Z,7.6
2022-12-01T14:13:27.925Z,7.5
2022-12-01T14:15:25.516Z,7.5
2022-12-01T14:16:28.363Z,7.6
2022-12-01T14:18:25.853Z,7.5
2022-12-01T14:20:23.457Z,7.5
2022-12-01T14:22:21.087Z,7.5
2022-12-01T14:24:26.589Z,7.5
2022-12-01T14:26:24.196Z,7.5
2022-12-01T14:28:21.834Z,7.4
2022-12-01T14:30:19.408Z,7.5
2022-12-01T14:32:17.037Z,7.4
2022-12-01T14:34:18.754Z,7.4
2022-12-01T14:38:17.716Z,7.5
2022-12-01T14:40:15.343Z,7.5
2022-12-01T14:44:10.703Z,7.5
2022-12-01T14:46:08.114Z,7.5
2022-12-01T14:48:05.817Z,7.7
2022-12-01T14:50:04.883Z,7.6
2022-12-01T14:52:10.294Z,7.4
2022-12-01T14:54:07.989Z,7.5
2022-12-01T14:56:05.547Z,7.5
2022-12-01T14:58:03.143Z,7.4
2022-12-01T15:00:00.721Z,7.4
2022-12-01T15:01:58.344Z,7.3
2022-12-01T15:03:55.965Z,7.4
2022-12-01T15:06:01.442Z,7.5
2022-12-01T15:08:18.713Z,7.5
2022-12-01T15:09:56.606Z,7.5
2022-12-01T15:12:23.607Z,7.4
2022-12-01T15:14:21.177Z,7.4
2022-12-01T15:16:18.803Z,7.4
2022-12-01T15:18:24.272Z,7.3
2022-12-01T15:20:21.860Z,7.3
2022-12-01T15:22:19.466Z,7.2
2022-12-01T15:24:17.083Z,7.3
2022-12-01T15:26:14.670Z,7.2
2022-12-01T15:30:09.871Z,7.2
2022-12-01T15:32:15.344Z,7.3
2022-12-01T15:34:12.957Z,7.2
2022-12-01T15:36:10.544Z,7.2
2022-12-01T15:40:47.777Z,7.2
2022-12-01T15:42:03.331Z,7.1
2022-12-01T15:44:00.901Z,7.3
2022-12-01T15:46:06.453Z,7.2
2022-12-01T15:48:04.022Z,7.2
2022-12-01T15:50:01.613Z,7.2
2022-12-01T15:51:59.212Z,7.3
2022-12-01T15:53:56.812Z,7.3
2022-12-01T15:55:58.753Z,7.2
2022-12-01T15:57:51.972Z,7.2
2022-12-01T15:59:57.477Z,7.2
2022-12-01T16:01:55.178Z,7.2
2022-12-01T16:03:52.702Z,7.2
2022-12-01T16:04:55.418Z,7.1
2022-12-01T16:06:53.003Z,7.1
2022-12-01T16:08:50.738Z,7.2
2022-12-01T16:10:48.176Z,7.2
2022-12-01T16:12:53.685Z,7.1
2022-12-01T16:14:51.751Z,7.1
2022-12-01T16:18:46.489Z,7.2
2022-12-01T16:20:44.074Z,7.2
2022-12-01T16:22:41.651Z,7
2022-12-01T16:26:44.775Z,7
2022-12-01T16:28:42.369Z,7.1
2022-12-01T16:30:40.059Z,7
2022-12-01T16:32:37.555Z,7
2022-12-01T16:34:46.030Z,7
2022-12-01T16:36:32.755Z,7.1
2022-12-01T16:38:30.371Z,7
2022-12-01T16:40:35.832Z,7
2022-12-01T16:46:28.657Z,6.9
2022-12-01T16:48:26.202Z,7
2022-12-01T16:52:43.577Z,7
2022-12-01T16:54:26.867Z,7
2022-12-01T16:56:24.497Z,7.1
2022-12-01T16:58:22.090Z,7
2022-12-01T17:01:22.471Z,6.9
2022-12-01T17:03:20.002Z,6.9
2022-12-01T17:05:17.614Z,7
2022-12-01T17:07:23.140Z,6.9
2022-12-01T17:09:20.660Z,6.9
2022-12-01T17:11:18.263Z,7
2022-12-01T17:13:15.862Z,7
2022-12-01T17:15:13.452Z,6.9
2022-12-01T17:17:11.108Z,6.9
2022-12-01T17:19:08.645Z,7
2022-12-01T17:25:09.349Z,6.9
2022-12-01T17:27:06.944Z,6.9
2022-12-01T17:29:04.527Z,6.9
2022-12-01T17:31:02.215Z,6.9
2022-12-01T17:32:59.720Z,6.8
2022-12-01T17:35:05.229Z,6.8
2022-12-01T17:37:02.835Z,6.9
2022-12-01T17:39:00.416Z,6.9
2022-12-01T17:40:57.990Z,6.9
2022-12-01T17:42:55.600Z,6.8
2022-12-01T17:44:53.172Z,6.8
2022-12-01T17:46:50.800Z,6.8
2022-12-01T17:48:56.210Z,6.7
2022-12-01T17:50:53.795Z,6.7
2022-12-01T17:52:51.383Z,6.8
2022-12-01T17:55:51.723Z,6.8
2022-12-01T17:57:49.305Z,6.9
2022-12-01T17:59:46.910Z,6.8
2022-12-01T18:01:52.494Z,6.8
2022-12-01T18:03:49.998Z,6.9
2022-12-01T18:05:47.592Z,6.9
2022-12-01T18:07:45.231Z,6.9
2022-12-01T18:09:42.763Z,6.9
2022-12-01T18:11:40.356Z,7
2022-12-01T18:13:37.949Z,7.1
2022-12-01T18:15:43.518Z,7
2022-12-01T18:17:41.015Z,7
2022-12-01T18:19:38.621Z,6.9
2022-12-01T18:21:36.237Z,7
2022-12-01T18:25:31.405Z,7
2022-12-01T18:27:29.028Z,6.8
2022-12-01T18:29:34.506Z,6.8
2022-12-01T18:31:32.221Z,6.9
2022-12-01T18:33:29.718Z,6.9
2022-12-01T18:35:31.554Z,6.9
2022-12-01T18:37:24.892Z,6.9
2022-12-01T18:39:22.472Z,6.9
2022-12-01T18:41:20.089Z,6.8
2022-12-01T18:43:25.549Z,6.8
2022-12-01T18:45:23.138Z,6.9
2022-12-01T18:49:47.670Z,6.7
2022-12-01T18:51:45.286Z,6.8
2022-12-01T18:53:42.862Z,6.7
2022-12-01T18:55:48.340Z,6.8
2022-12-01T18:57:45.928Z,6.9
2022-12-01T18:59:43.523Z,6.7
2022-12-01T19:01:41.290Z,6.6
2022-12-01T19:03:38.716Z,6.6
2022-12-01T19:05:36.274Z,6.8
2022-12-01T19:07:33.906Z,6.7
2022-12-01T19:11:36.952Z,6.7
2022-12-01T19:13:34.528Z,6.8
2022-12-01T19:15:32.119Z,6.7
2022-12-01T19:17:29.686Z,6.7
2022-12-01T19:19:27.288Z,6.7
2022-12-01T19:21:24.862Z,6.6
2022-12-01T19:23:30.338Z,6.6
2022-12-01T19:25:27.911Z,6.8
2022-12-01T19:27:25.509Z,6.7
2022-12-01T19:29:23.094Z,6.7
2022-12-01T19:31:20.787Z,6.6
2022-12-01T19:33:18.255Z,6.7
2022-12-01T19:35:15.808Z,6.7
2022-12-01T19:41:16.444Z,6.7
2022-12-01T19:42:19.191Z,6.6
2022-12-01T19:44:16.759Z,6.6
2022-12-01T19:46:14.428Z,6.7
2022-12-01T19:48:11.948Z,6.7
2022-12-01T19:50:17.415Z,6.6
2022-12-01T19:52:15.004Z,6.7
2022-12-01T19:54:12.582Z,6.8
2022-12-01T19:56:10.168Z,6.7
2022-12-01T19:58:07.751Z,6.7
2022-12-01T20:00:05.350Z,6.6
2022-12-01T20:02:02.975Z,6.6
2022-12-01T20:04:08.371Z,6.6
2022-12-01T20:06:05.966Z,6.6
2022-12-01T20:08:03.603Z,6.5
2022-12-01T20:10:01.128Z,6.7
2022-12-01T20:11:58.711Z,6.7
2022-12-01T20:13:56.275Z,6.7
2022-12-01T20:17:59.293Z,6.7
2022-12-01T20:19:56.883Z,6.8
2022-12-01T20:25:49.629Z,6.6
2022-12-01T20:27:47.236Z,6.5
2022-12-01T20:29:44.829Z,6.6
2022-12-01T20:31:51.896Z,6.6
2022-12-01T20:33:49.356Z,6.6
2022-12-01T20:36:49.700Z,6.6
2022-12-01T20:38:47.289Z,6.5
2022-12-01T20:40:44.906Z,6.6
2022-12-01T20:42:42.473Z,6.5
2022-12-01T20:44:48.042Z,6.5
2022-12-01T20:50:40.658Z,6.5
2022-12-01T20:52:38.225Z,6.4
2022-12-01T20:54:35.824Z,6.5
2022-12-01T20:56:33.397Z,6.5
2022-12-01T20:58:38.856Z,6.4
2022-12-01T21:00:36.586Z,6.5
2022-12-01T21:02:34.046Z,6.4
2022-12-01T21:04:31.599Z,6.4
2022-12-01T21:06:29.180Z,6.3
2022-12-01T21:08:26.764Z,6.2
2022-12-01T21:10:24.385Z,6.2
2022-12-01T21:12:29.833Z,6.3
2022-12-01T21:14:27.420Z,6.3
2022-12-01T21:16:25.019Z,6.3
2022-12-01T21:18:22.602Z,6.3
2022-12-01T21:20:20.173Z,6.4
2022-12-01T21:22:17.768Z,6.3
2022-12-01T21:26:20.841Z,6.2
2022-12-01T21:28:18.421Z,6.1
2022-12-01T21:30:15.993Z,6.1
2022-12-01T21:31:18.813Z,6.2
2022-12-01T21:33:16.319Z,6.1
2022-12-01T21:35:13.901Z,6.1
2022-12-01T21:37:11.513Z,6.1
2022-12-01T21:39:16.982Z,6
2022-12-01T21:41:14.545Z,6
2022-12-01T21:43:12.142Z,6
2022-12-01T21:45:09.705Z,6.1
2022-12-01T21:47:07.294Z,6
2022-12-01T21:57:03.091Z,5.9
2022-12-01T22:00:58.345Z,5.8
2022-12-01T22:02:55.871Z,5.8
2022-12-01T22:06:58.876Z,5.9
2022-12-01T22:10:54.045Z,5.8
2022-12-01T22:12:51.606Z,5.8
2022-12-01T22:14:49.517Z,5.8
2022-12-01T22:16:46.748Z,5.8
2022-12-01T22:18:44.347Z,5.8
2022-12-01T22:20:49.768Z,5.8
2022-12-01T22:22:47.357Z,5.8
2022-12-01T22:24:44.932Z,5.6
2022-12-01T22:27:07.704Z,5.6
2022-12-01T22:29:05.289Z,5.7
2022-12-01T22:31:02.841Z,5.7
2022-12-01T22:33:08.287Z,5.8
2022-12-01T22:35:05.859Z,5.7
2022-12-01T22:37:03.431Z,5.7
2022-12-01T22:39:00.973Z,5.8
2022-12-01T22:40:58.569Z,5.7
2022-12-01T22:42:56.154Z,5.8
2022-12-01T22:46:59.197Z,5.7
2022-12-01T22:52:51.913Z,5.7
2022-12-01T22:54:50.001Z,5.7
2022-12-01T22:56:47.068Z,5.7
2022-12-01T22:58:44.627Z,5.7
2022-12-01T23:00:50.101Z,5.7
2022-12-01T23:02:47.718Z,5.8
2022-12-01T23:04:45.271Z,5.7
2022-12-01T23:06:42.841Z,5.8
2022-12-01T23:08:40.413Z,5.7
2022-12-01T23:10:37.992Z,5.7
2022-12-01T23:12:35.555Z,5.6
2022-12-01T23:14:41.041Z,5.7
2022-12-01T23:16:38.676Z,5.7
2022-12-01T23:19:38.934Z,5.7
2022-12-01T23:21:36.514Z,5.8
2022-12-01T23:23:34.070Z,5.8
2022-12-01T23:25:31.673Z,5.7
2022-12-01T23:27:37.136Z,5.6
2022-12-01T23:29:34.705Z,5.7
2022-12-01T23:31:32.351Z,5.6
2022-12-01T23:33:29.856Z,5.7
2022-12-01T23:35:27.429Z,5.7
2022-12-01T23:37:25.007Z,5.7
2022-12-01T23:39:22.579Z,5.8
2022-12-01T23:41:28.064Z,5.8
2022-12-01T23:43:25.629Z,5.8
2022-12-01T23:45:23.224Z,5.8
2022-12-01T23:47:20.792Z,5.8
2022-12-01T23:49:18.338Z,5.7
2022-12-01T23:55:18.957Z,5.5
2022-12-01T23:57:16.576Z,5.5
2022-12-01T23:59:14.128Z,5.4
